Time;durP1;ratioP1;P1;durP2;ratioP2;P2;SDS_P1;SDS_P2;PMS_P1;PMS_P2;Temp;Humidity;BMP_temperature;BMP_pressure;BME280_temperature;BME280_humidity;BME280_pressure;Samples;Min_cycle;Max_cycle;Signal;HPM_P1;HPM_P2
2023/11/03 00:02:14;;;;;;;3.15;1.35;;;;;;;-145.63;45.29;39395.84;5023190;28;20328;-70
2023/11/03 00:04:39;;;;;;;2.30;1.52;;;;;;;-145.63;44.86;39411.47;5019009;28;20034;-71
2023/11/03 00:07:05;;;;;;;3.97;1.63;;;;;;;-145.63;44.94;39395.84;5016184;28;20037;-70
2023/11/03 00:09:37;;;;;;;1.73;1.30;;;;;;;-145.63;44.79;39427.13;5021725;28;20025;-71
2023/11/03 00:12:03;;;;;;;;;;;;;;;-145.63;44.41;39384.09;5023930;28;20026;-70
2023/11/03 00:14:32;;;;;;;2.58;1.38;;;;;;;-145.63;44.81;39421.25;5012934;28;19945;-70
2023/11/03 00:16:59;;;;;;;1.73;1.10;;;;;;;-145.63;45.10;39409.53;5012170;28;20097;-70
2023/11/03 00:19:25;;;;;;;3.60;1.50;;;;;;;-145.63;45.30;39395.84;5019733;28;20029;-70
2023/11/03 00:21:52;;;;;;;2.53;1.20;;;;;;;-145.63;45.68;39403.66;5021733;28;20037;-69
2023/11/03 00:24:18;;;;;;;2.15;1.40;;;;;;;-145.63;45.42;39427.13;5005569;28;20081;-71
2023/11/03 00:26:44;;;;;;;2.08;1.27;;;;;;;-145.63;45.37;39409.53;5016061;28;20042;-71
2023/11/03 00:29:10;;;;;;;1.00;0.90;;;;;;;-145.63;45.24;39413.44;5021694;28;20265;-70
2023/11/03 00:31:45;;;;;;;1.00;0.90;;;;;;;-145.63;45.30;39391.91;5021630;28;20057;-70
2023/11/03 00:34:13;;;;;;;1.48;1.23;;;;;;;-145.63;45.86;39395.84;5055049;28;20033;-70
2023/11/03 00:36:41;;;;;;;1.80;0.95;;;;;;;-145.63;45.97;39378.22;5003547;28;20097;-71
2023/11/03 00:39:12;;;;;;;1.60;1.50;;;;;;;-145.63;45.42;39419.31;5018926;28;20079;-71
2023/11/03 00:41:42;;;;;;;1.58;0.82;;;;;;;-145.63;46.04;39411.47;5011419;28;20030;-70
2023/11/03 00:44:09;;;;;;;1.63;1.10;;;;;;;-145.63;45.07;39434.94;5010706;28;20093;-70
2023/11/03 00:46:38;;;;;;;1.42;1.13;;;;;;;-145.63;45.83;39395.84;5022812;28;20034;-71
2023/11/03 00:49:12;;;;;;;2.53;1.27;;;;;;;-145.63;46.03;39423.22;5021726;28;20202;-73
2023/11/03 00:51:38;;;;;;;1.40;1.30;;;;;;;-145.63;45.70;39399.75;5003170;28;20030;-71
2023/11/03 00:54:05;;;;;;;1.45;1.15;;;;;;;-145.63;46.16;39407.56;5018281;28;20053;-71
2023/11/03 00:56:39;;;;;;;1.55;1.00;;;;;;;-145.63;45.68;39407.56;5010858;28;20042;-70
2023/11/03 00:59:05;;;;;;;0.93;0.90;;;;;;;-145.63;45.49;39388.00;5010266;28;20025;-71
2023/11/03 01:01:31;;;;;;;1.05;1.02;;;;;;;-145.63;45.54;39411.47;5022475;28;20167;-71
2023/11/03 01:03:57;;;;;;;2.17;1.20;;;;;;;-145.63;46.35;39391.91;5021716;28;20022;-71
2023/11/03 01:06:23;;;;;;;0.90;0.90;;;;;;;-145.63;46.29;39389.97;5012246;28;20053;-70
2023/11/03 01:08:52;;;;;;;0.95;0.95;;;;;;;-145.63;45.68;39405.59;5023321;28;20026;-71
2023/11/03 01:11:26;;;;;;;1.75;1.08;;;;;;;-145.63;45.76;39438.84;5017161;28;20046;-71
2023/11/03 01:13:52;;;;;;;0.90;0.90;;;;;;;-145.63;45.50;39405.59;5043363;28;20018;-71
2023/11/03 01:16:19;;;;;;;1.20;1.10;;;;;;;-145.63;45.98;39417.34;5017662;28;20093;-69
2023/11/03 01:18:45;;;;;;;1.23;1.08;;;;;;;-145.63;45.95;39407.56;5023034;28;20041;-70
2023/11/03 01:21:15;;;;;;;1.10;1.08;;;;;;;-145.63;46.01;39274.56;5055958;28;20032;-69
2023/11/03 01:23:42;;;;;;;0.90;0.90;;;;;;;-145.63;45.86;39411.47;5026047;28;20032;-70
2023/11/03 01:26:10;;;;;;;2.35;0.90;;;;;;;-145.63;46.27;39380.19;5023804;28;20225;-69
2023/11/03 01:28:36;;;;;;;3.03;1.05;;;;;;;-145.63;46.23;39386.06;5029044;28;20047;-70
2023/11/03 01:31:04;;;;;;;1.25;1.00;;;;;;;-145.63;45.78;39403.66;5045714;28;20049;-70
2023/11/03 01:33:37;;;;;;;1.42;1.10;;;;;;;-145.63;45.72;39403.66;5027209;28;20097;-72
2023/11/03 01:36:04;;;;;;;1.00;0.85;;;;;;;-145.63;45.98;39401.69;5011242;28;20106;-70
2023/11/03 01:38:31;;;;;;;1.35;1.15;;;;;;;-145.63;46.02;39415.38;5016300;28;20033;-71
2023/11/03 01:41:00;;;;;;;1.05;1.00;;;;;;;-145.63;45.87;39415.38;5020229;28;20073;-70
2023/11/03 01:43:27;;;;;;;1.73;1.10;;;;;;;-145.63;45.61;39395.84;5008462;28;20030;-70
2023/11/03 01:45:52;;;;;;;1.35;1.08;;;;;;;-145.63;46.04;39401.69;5042371;28;20380;-70
2023/11/03 01:48:18;;;;;;;1.63;0.90;;;;;;;-145.63;46.24;39409.53;5025258;28;20030;-70
2023/11/03 01:50:44;;;;;;;2.25;0.80;;;;;;;-145.63;46.35;39364.53;5025483;28;20045;-70
2023/11/03 01:53:15;;;;;;;1.10;1.02;;;;;;;-145.63;45.88;39393.88;5018177;28;20030;-69
2023/11/03 01:55:41;;;;;;;2.05;1.30;;;;;;;-145.63;46.14;39407.56;5009032;28;20045;-71
2023/11/03 01:58:07;;;;;;;1.10;1.00;;;;;;;-145.63;45.54;39403.66;5007693;28;20034;-71
2023/11/03 02:00:33;;;;;;;1.85;1.00;;;;;;;-145.63;45.87;39431.03;5025464;28;20029;-71
2023/11/03 02:02:59;;;;;;;1.27;0.80;;;;;;;-145.63;46.19;39460.38;5024283;28;20033;-72
2023/11/03 02:05:25;;;;;;;1.48;1.10;;;;;;;-145.63;45.77;39433.00;5015837;28;20105;-71
2023/11/03 02:07:50;;;;;;;1.30;1.20;;;;;;;-145.63;45.94;39391.91;5024534;28;20026;-71
2023/11/03 02:10:16;;;;;;;2.72;1.30;;;;;;;-145.63;45.59;39403.66;5025416;28;20313;-69
2023/11/03 02:12:42;;;;;;;0.90;0.90;;;;;;;-145.63;46.00;39415.38;5005267;28;20370;-69
2023/11/03 02:15:08;;;;;;;1.10;1.00;;;;;;;-145.63;46.31;39423.22;5048073;28;20045;-69
2023/11/03 02:17:36;;;;;;;1.05;0.95;;;;;;;-145.63;45.70;39415.38;5016718;28;20026;-69
2023/11/03 02:20:21;;;;;;;1.00;1.00;;;;;;;-145.63;46.23;39386.06;5009807;28;20281;-69
2023/11/03 02:22:55;;;;;;;1.80;1.15;;;;;;;-145.63;46.14;39393.88;5024775;28;20029;-69
2023/11/03 02:25:21;;;;;;;1.50;1.10;;;;;;;-145.63;46.07;39431.03;5023770;28;20057;-68
2023/11/03 02:27:47;;;;;;;1.17;1.10;;;;;;;-145.63;45.70;39419.31;5023438;28;20030;-69
2023/11/03 02:30:13;;;;;;;1.52;1.20;;;;;;;-145.63;45.85;39395.84;5023250;28;20322;-70
2023/11/03 02:32:39;;;;;;;1.40;1.27;;;;;;;-145.63;46.19;39407.56;5013697;28;20089;-70
2023/11/03 02:35:05;;;;;;;1.55;1.17;;;;;;;-145.63;46.01;39388.00;5010968;28;20050;-70
2023/11/03 02:37:32;;;;;;;2.15;1.48;;;;;;;-145.63;46.64;39395.84;5022805;28;20032;-69
2023/11/03 02:39:57;;;;;;;2.88;1.20;;;;;;;-145.63;46.38;39399.75;5004808;28;20034;-68
2023/11/03 02:42:23;;;;;;;3.08;1.80;;;;;;;-145.63;46.60;39407.56;5020329;28;20097;-69
2023/11/03 02:44:49;;;;;;;1.40;1.20;;;;;;;-145.63;46.42;39407.56;5012637;28;20030;-69
2023/11/03 02:47:14;;;;;;;2.13;1.30;;;;;;;-145.63;46.33;39419.31;5018454;28;20029;-69
2023/11/03 02:49:40;;;;;;;1.98;1.70;;;;;;;-145.63;46.30;39431.03;5024319;28;20072;-69
2023/11/03 02:52:07;;;;;;;2.00;1.85;;;;;;;-145.63;46.32;39399.75;5056313;28;20036;-70
2023/11/03 02:54:32;;;;;;;3.05;2.20;;;;;;;-145.63;46.50;39376.28;5005251;28;20313;-70
2023/11/03 02:56:58;;;;;;;2.92;2.10;;;;;;;-145.63;46.32;39429.06;5016604;28;20030;-70
2023/11/03 02:59:23;;;;;;;2.47;2.28;;;;;;;-145.63;45.68;39393.88;5023992;28;20029;-70
2023/11/03 03:01:49;;;;;;;2.65;2.45;;;;;;;-145.63;46.12;39376.28;5023002;28;20025;-71
2023/11/03 03:04:15;;;;;;;2.75;2.10;;;;;;;-145.63;45.75;39407.56;5020447;28;20033;-69
2023/11/03 03:06:45;;;;;;;2.17;2.00;;;;;;;-145.63;46.36;39393.88;5015279;28;20121;-69
2023/11/03 03:09:16;;;;;;;1.88;1.77;;;;;;;-145.63;45.81;39386.06;5009023;28;20026;-71
2023/11/03 03:11:42;;;;;;;2.30;2.10;;;;;;;-145.63;45.95;39393.88;5026018;28;20029;-70
2023/11/03 03:14:08;;;;;;;1.80;1.70;;;;;;;-145.63;46.58;39409.53;5037352;28;20034;-71
2023/11/03 03:16:35;;;;;;;2.90;1.85;;;;;;;-145.63;46.00;39393.88;5015359;28;20234;-70
2023/11/03 03:19:00;;;;;;;3.42;1.90;;;;;;;-145.63;45.83;39413.44;5004756;28;20484;-69
2023/11/03 03:21:26;;;;;;;2.15;1.95;;;;;;;-145.63;45.98;39405.59;5020197;28;20088;-69
2023/11/03 03:23:52;;;;;;;2.25;1.80;;;;;;;-145.63;45.74;39417.34;5015964;28;20022;-71
2023/11/03 03:26:17;;;;;;;1.88;1.73;;;;;;;-145.63;46.23;39384.09;5023295;28;20045;-71
2023/11/03 03:28:43;;;;;;;3.08;1.80;;;;;;;-145.63;46.04;39427.13;5021126;28;20034;-70
2023/11/03 03:31:10;;;;;;;2.85;1.90;;;;;;;-145.63;46.02;39391.91;5005969;28;20089;-71
2023/11/03 03:33:35;;;;;;;1.98;1.70;;;;;;;-145.63;45.95;39395.84;5005103;28;20034;-70
2023/11/03 03:36:01;;;;;;;2.08;1.80;;;;;;;-145.63;46.20;39374.31;5017485;28;20303;-69
2023/11/03 03:38:27;;;;;;;2.65;1.95;;;;;;;-145.63;45.68;39378.22;5022612;28;20034;-70
2023/11/03 03:40:52;;;;;;;2.75;1.70;;;;;;;-145.63;45.84;39419.31;5019806;28;20160;-70
2023/11/03 03:43:18;;;;;;;1.77;1.67;;;;;;;-145.63;45.62;39395.84;5012275;28;20025;-70
2023/11/03 03:45:44;;;;;;;2.90;1.60;;;;;;;-145.63;45.80;39423.22;5023365;28;20341;-71
2023/11/03 03:48:09;;;;;;;2.17;1.67;;;;;;;-145.63;46.23;39413.44;5022391;28;20025;-71
2023/11/03 03:50:35;;;;;;;2.65;1.80;;;;;;;-145.63;45.94;39415.38;5022401;28;20034;-70
2023/11/03 03:53:00;;;;;;;2.13;1.67;;;;;;;-145.63;46.23;39427.13;5018323;28;20315;-70
2023/11/03 03:55:26;;;;;;;2.75;1.73;;;;;;;-145.63;46.19;39409.53;5003858;28;20034;-70
2023/11/03 03:57:52;;;;;;;2.47;1.88;;;;;;;-145.63;46.13;39425.16;5055557;28;20029;-70
2023/11/03 04:00:18;;;;;;;2.13;1.70;;;;;;;-145.63;46.27;39413.44;5022981;28;20120;-70
2023/11/03 04:02:45;;;;;;;3.08;2.00;;;;;;;-145.63;46.87;39407.56;5023448;28;20095;-70
2023/11/03 04:05:11;;;;;;;2.50;1.85;;;;;;;-145.63;46.22;39423.22;5017297;28;20026;-69
2023/11/03 04:07:37;;;;;;;3.92;2.08;;;;;;;-145.63;46.45;39423.22;5051536;28;20033;-69
2023/11/03 04:10:05;;;;;;;2.60;1.67;;;;;;;-145.63;46.06;39399.75;5003765;28;20045;-69
2023/11/03 04:12:31;;;;;;;2.08;1.90;;;;;;;-145.63;46.46;39401.69;5003355;28;20049;-68
2023/11/03 04:14:56;;;;;;;3.30;1.80;;;;;;;-145.63;46.17;39399.75;5012223;28;20306;-70
2023/11/03 04:17:22;;;;;;;2.92;2.25;;;;;;;-145.63;46.08;39401.69;5012687;28;20245;-69
2023/11/03 04:19:48;;;;;;;3.95;2.05;;;;;;;-145.63;46.02;39409.53;5008278;28;20316;-68
2023/11/03 04:22:14;;;;;;;3.28;2.25;;;;;;;-145.63;45.72;39411.47;5054806;28;20030;-67
2023/11/03 04:24:40;;;;;;;7.20;2.33;;;;;;;-145.63;45.94;39419.31;5005569;28;20026;-70
2023/11/03 04:27:05;;;;;;;4.57;2.47;;;;;;;-145.63;46.10;39399.75;5019550;28;20087;-69
2023/11/03 04:29:31;;;;;;;3.78;2.35;;;;;;;-145.63;47.02;39411.47;5013071;28;20037;-71
2023/11/03 04:31:56;;;;;;;4.32;2.28;;;;;;;-145.63;46.71;39407.56;5007627;28;20042;-69
2023/11/03 04:34:22;;;;;;;4.15;2.33;;;;;;;-145.63;46.60;39462.31;5002800;28;20027;-69
2023/11/03 04:36:50;;;;;;;3.45;2.50;;;;;;;-145.63;47.50;39395.84;5022234;28;20038;-70
2023/11/03 04:39:15;;;;;;;3.28;2.47;;;;;;;-145.63;46.94;39438.84;5008084;28;20297;-69
2023/11/03 04:41:41;;;;;;;2.72;2.30;;;;;;;-145.63;46.49;39382.13;5013270;28;20022;-68
2023/11/03 04:44:07;;;;;;;2.97;2.63;;;;;;;-145.63;46.51;39415.38;5019992;28;20187;-69
2023/11/03 04:46:32;;;;;;;3.95;2.63;;;;;;;-145.63;46.77;39433.00;5045490;28;20026;-69
2023/11/03 04:48:58;;;;;;;2.95;2.63;;;;;;;-145.63;46.42;39397.78;5018573;28;20072;-70
2023/11/03 04:51:24;;;;;;;3.80;2.83;;;;;;;-145.63;46.80;39376.28;5015447;28;20026;-70
2023/11/03 04:53:49;;;;;;;5.13;2.67;;;;;;;-145.63;46.76;39411.47;5017864;28;20274;-70
2023/11/03 04:56:15;;;;;;;3.63;3.25;;;;;;;-145.63;46.80;39399.75;5019918;28;20096;-70
2023/11/03 04:58:41;;;;;;;3.75;2.95;;;;;;;-145.63;47.04;39421.25;5007349;28;20042;-70
2023/11/03 05:01:07;;;;;;;4.95;3.30;;;;;;;-145.63;46.67;39421.25;5017349;28;20034;-69
2023/11/03 05:03:32;;;;;;;8.98;3.80;;;;;;;-145.63;46.92;39391.91;5025911;28;20045;-70
2023/11/03 05:05:58;;;;;;;6.90;3.60;;;;;;;-145.63;46.52;39401.69;5016526;28;20258;-70
2023/11/03 05:08:24;;;;;;;4.80;3.47;;;;;;;-145.63;46.82;39433.00;4994848;28;20031;-69
2023/11/03 05:10:49;;;;;;;4.53;4.03;;;;;;;-145.63;47.54;39421.25;5018101;28;20041;-69
2023/11/03 05:13:16;;;;;;;5.20;3.60;;;;;;;-145.63;47.47;39382.13;5013638;28;20033;-69
2023/11/03 05:15:42;;;;;;;4.47;3.55;;;;;;;-145.63;47.58;39386.06;5025836;28;20356;-69
2023/11/03 05:18:10;;;;;;;6.80;3.20;;;;;;;-145.63;46.96;39388.00;5012376;28;20267;-69
2023/11/03 05:20:37;;;;;;;3.92;3.00;;;;;;;-145.63;46.95;39427.13;5015244;28;20029;-69
2023/11/03 05:23:02;;;;;;;5.65;3.10;;;;;;;-145.63;46.69;39405.59;5025812;28;20065;-68
2023/11/03 05:25:28;;;;;;;4.13;3.00;;;;;;;-145.63;46.23;39403.66;5025751;28;20033;-69
2023/11/03 05:27:54;;;;;;;5.25;2.92;;;;;;;-145.63;46.81;39409.53;5025836;28;20029;-69
2023/11/03 05:30:21;;;;;;;4.95;2.97;;;;;;;-145.63;46.76;39415.38;5010677;28;20077;-69
2023/11/03 05:32:47;;;;;;;3.45;2.95;;;;;;;-145.63;46.29;39419.31;5016419;28;20207;-69
2023/11/03 05:35:13;;;;;;;3.35;2.70;;;;;;;-145.63;46.14;39395.84;5019711;28;20034;-69
2023/11/03 05:37:39;;;;;;;4.35;3.00;;;;;;;-145.63;46.58;39419.31;5006717;28;20040;-70
2023/11/03 05:40:05;;;;;;;4.45;2.85;;;;;;;-145.63;46.46;39380.19;5025561;28;20030;-70
2023/11/03 05:42:31;;;;;;;3.00;2.60;;;;;;;-145.63;46.27;39403.66;5009120;28;20129;-70
2023/11/03 05:44:57;;;;;;;5.50;2.97;;;;;;;-145.63;46.14;39425.16;5017334;28;20046;-68
2023/11/03 05:47:22;;;;;;;4.93;2.70;;;;;;;-145.63;45.93;39413.44;5018334;28;20019;-70
2023/11/03 05:49:48;;;;;;;4.80;3.10;;;;;;;-145.63;46.09;39405.59;5020754;28;20190;-68
2023/11/03 05:52:14;;;;;;;5.22;2.75;;;;;;;-145.63;46.31;39427.13;5025037;28;20030;-69
2023/11/03 05:54:39;;;;;;;5.32;3.03;;;;;;;-145.63;46.39;39421.25;5024133;28;20025;-70
2023/11/03 05:57:05;;;;;;;3.67;3.03;;;;;;;-145.63;46.54;39386.06;5012648;28;20026;-71
2023/11/03 05:59:31;;;;;;;6.13;3.70;;;;;;;-145.63;45.80;39415.38;5013195;28;20329;-70
2023/11/03 06:01:56;;;;;;;4.60;3.42;;;;;;;-145.63;45.94;39391.91;5025211;28;20028;-71
2023/11/03 06:04:22;;;;;;;6.65;3.67;;;;;;;-145.63;46.42;39386.06;5024177;28;20026;-71
2023/11/03 06:06:48;;;;;;;8.00;3.30;;;;;;;-145.63;46.24;39403.66;5016992;28;20222;-71
2023/11/03 06:09:14;;;;;;;5.10;3.60;;;;;;;-145.63;45.43;39415.38;5012485;28;20348;-72
2023/11/03 06:11:40;;;;;;;5.72;3.80;;;;;;;-145.63;45.88;39417.34;5021026;28;20033;-72
2023/11/03 06:14:06;;;;;;;5.65;3.25;;;;;;;-145.63;45.82;39419.31;5024271;28;20060;-69
2023/11/03 06:16:34;;;;;;;3.88;3.47;;;;;;;-145.63;46.13;39415.38;5019305;28;20089;-69
2023/11/03 06:19:01;;;;;;;6.70;3.50;;;;;;;-145.63;46.12;39407.56;5023706;28;20033;-69
2023/11/03 06:21:28;;;;;;;5.50;3.90;;;;;;;-145.63;45.91;39401.69;5020273;28;20341;-69
2023/11/03 06:23:55;;;;;;;5.60;3.70;;;;;;;-145.63;46.03;39438.84;5019293;28;20178;-70
2023/11/03 06:26:21;;;;;;;7.20;4.10;;;;;;;-145.63;45.40;39391.91;5024215;28;20178;-70
2023/11/03 06:28:46;;;;;;;6.22;4.18;;;;;;;-145.63;45.48;39397.78;5024353;28;20085;-69
2023/11/03 06:31:12;;;;;;;6.63;4.30;;;;;;;-145.63;46.15;39389.97;5023784;28;20053;-69
2023/11/03 06:33:38;;;;;;;6.05;4.15;;;;;;;-145.63;45.73;39278.47;5023769;28;20105;-70
2023/11/03 06:36:04;;;;;;;8.00;3.97;;;;;;;-145.63;46.46;39401.69;5023701;28;20029;-69
2023/11/03 06:38:29;;;;;;;5.85;4.18;;;;;;;-145.63;46.38;39411.47;5019476;28;20282;-69
2023/11/03 06:40:58;;;;;;;9.45;4.82;;;;;;;-145.63;46.27;39423.22;5021621;28;20068;-69
2023/11/03 06:43:24;;;;;;;6.90;4.68;;;;;;;-145.63;46.19;39415.38;5024511;28;20055;-70
2023/11/03 06:45:49;;;;;;;5.60;5.10;;;;;;;-145.63;45.82;39419.31;5006219;28;20033;-70
2023/11/03 06:48:15;;;;;;;8.23;5.45;;;;;;;-145.63;46.15;39407.56;5019110;28;20025;-71
2023/11/03 06:50:41;;;;;;;7.93;5.25;;;;;;;-145.63;46.22;39429.06;5021030;28;20030;-69
2023/11/03 06:53:07;;;;;;;8.93;5.68;;;;;;;-145.63;46.35;39397.78;5020426;28;20030;-70
2023/11/03 06:55:32;;;;;;;9.40;6.18;;;;;;;-145.63;45.57;39419.31;5022531;28;20030;-70
2023/11/03 06:57:58;;;;;;;11.13;6.10;;;;;;;-145.63;45.30;39399.75;5023524;28;20026;-69
2023/11/03 07:00:25;;;;;;;9.75;6.43;;;;;;;-145.63;45.45;39393.88;5023476;28;20334;-69
2023/11/03 07:02:52;;;;;;;7.75;6.63;;;;;;;-145.63;45.45;39417.34;5024398;28;20029;-69
2023/11/03 07:05:23;;;;;;;6.95;6.13;;;;;;;-145.63;45.22;39427.13;5023012;28;20046;-69
2023/11/03 07:07:48;;;;;;;11.18;6.18;;;;;;;-145.63;45.81;39399.75;5020033;28;20049;-68
2023/11/03 07:10:14;;;;;;;7.55;5.63;;;;;;;-145.63;45.97;39401.69;5008586;28;20318;-69
2023/11/03 07:12:40;;;;;;;7.30;5.72;;;;;;;-145.63;45.37;39386.06;5008806;28;20045;-69
2023/11/03 07:15:06;;;;;;;7.05;5.80;;;;;;;-145.63;46.05;39378.22;5011773;28;20025;-69
2023/11/03 07:17:34;;;;;;;9.75;5.60;;;;;;;-145.63;45.99;39391.91;5017052;28;20034;-69
2023/11/03 07:19:59;;;;;;;10.80;5.53;;;;;;;-145.63;45.75;39372.34;5019937;28;20018;-69
2023/11/03 07:22:26;;;;;;;7.68;5.78;;;;;;;-145.63;45.19;39388.00;5012575;28;20110;-69
2023/11/03 07:24:54;;;;;;;6.80;5.70;;;;;;;-145.63;45.59;39348.88;5039677;28;20021;-68
2023/11/03 07:27:20;;;;;;;10.18;5.90;;;;;;;-145.63;46.40;39384.09;5027523;28;20049;-71
2023/11/03 07:29:45;;;;;;;6.55;5.95;;;;;;;-145.63;45.32;39364.53;5014299;28;20067;-70
2023/11/03 07:32:11;;;;;;;8.45;6.00;;;;;;;-145.63;45.83;39391.91;5016607;28;20088;-69
2023/11/03 07:34:36;;;;;;;13.25;6.50;;;;;;;-145.63;46.09;39376.28;5023391;28;20051;-69
2023/11/03 07:37:04;;;;;;;8.00;7.20;;;;;;;-145.63;45.44;39362.59;5003994;28;20364;-70
2023/11/03 07:39:30;;;;;;;9.25;7.93;;;;;;;-145.63;45.71;39380.19;5018879;28;20041;-70
2023/11/03 07:41:56;;;;;;;12.73;10.18;;;;;;;-145.63;45.28;39391.91;5014692;28;20033;-70
2023/11/03 07:44:21;;;;;;;10.48;9.18;;;;;;;-145.63;45.40;39323.47;5016770;28;20026;-70
2023/11/03 07:46:49;;;;;;;12.70;9.77;;;;;;;-145.63;45.54;39405.59;5017076;28;20030;-69
2023/11/03 07:49:14;;;;;;;9.85;8.85;;;;;;;-145.63;45.44;39372.34;5023169;28;20045;-69
2023/11/03 07:51:40;;;;;;;13.88;9.48;;;;;;;-145.63;45.24;39360.63;5023212;28;20326;-70
2023/11/03 07:54:06;;;;;;;11.20;9.70;;;;;;;-145.63;45.59;39360.63;5022128;28;20060;-69
2023/11/03 07:56:31;;;;;;;12.40;10.85;;;;;;;-145.63;45.27;39364.53;5016382;28;20030;-69
2023/11/03 07:58:57;;;;;;;11.32;10.15;;;;;;;-145.63;45.15;39370.41;5005805;28;20057;-69
2023/11/03 08:01:22;;;;;;;13.82;12.40;;;;;;;-145.63;45.15;39356.72;5022981;28;20221;-70
2023/11/03 08:03:48;;;;;;;14.48;11.57;;;;;;;-145.63;45.11;39366.50;5023352;28;20033;-70
2023/11/03 08:06:14;;;;;;;12.18;11.00;;;;;;;-145.63;45.11;39348.88;5009139;28;20030;-71
2023/11/03 08:08:41;;;;;;;20.17;14.35;;;;;;;-145.63;45.25;39378.22;5011467;28;20334;-70
2023/11/03 08:11:08;;;;;;;16.15;13.50;;;;;;;-145.63;45.26;39348.88;5022391;28;20298;-70
2023/11/03 08:13:34;;;;;;;13.18;11.40;;;;;;;-145.63;45.46;39368.44;5011414;28;20054;-70
2023/11/03 08:15:59;;;;;;;12.68;9.43;;;;;;;-145.63;45.55;39382.13;5014106;28;20229;-71
2023/11/03 08:18:27;;;;;;;12.25;9.43;;;;;;;-145.63;45.38;39374.31;5022479;28;20030;-69
2023/11/03 08:20:52;;;;;;;10.38;9.32;;;;;;;-145.63;45.86;39384.09;5027244;28;20310;-70
2023/11/03 08:23:20;;;;;;;9.82;8.90;;;;;;;-145.63;46.06;39376.28;5026679;28;20041;-71
2023/11/03 08:25:46;;;;;;;8.45;7.55;;;;;;;-145.63;45.41;39360.63;5026677;28;20018;-75
2023/11/03 08:28:12;;;;;;;8.18;7.28;;;;;;;-145.63;45.83;39395.84;5007061;28;20026;-70
2023/11/03 08:30:40;;;;;;;9.13;8.13;;;;;;;-145.63;45.17;39360.63;5021223;28;20037;-71
2023/11/03 08:33:07;;;;;;;9.90;8.40;;;;;;;-145.63;45.51;39356.72;5026575;28;20209;-73
2023/11/03 08:35:34;;;;;;;10.15;9.13;;;;;;;-145.63;45.55;39401.69;5018249;28;20045;-72
2023/11/03 08:38:00;;;;;;;10.15;7.95;;;;;;;-145.63;45.24;39368.44;5024763;28;20022;-72
2023/11/03 08:40:26;;;;;;;12.82;9.10;;;;;;;-145.63;45.38;39368.44;5006954;28;20433;-72
2023/11/03 08:42:52;;;;;;;9.90;7.25;;;;;;;-145.63;45.42;39411.47;5024397;28;20304;-72
2023/11/03 08:45:19;;;;;;;12.35;6.93;;;;;;;-145.63;45.42;39372.34;5013827;28;20030;-71
2023/11/03 08:47:45;;;;;;;11.45;7.05;;;;;;;-145.63;45.57;39370.41;5015173;28;20222;-72
2023/11/03 08:50:12;;;;;;;14.43;7.20;;;;;;;-145.63;45.79;39343.03;5026288;28;20037;-71
2023/11/03 08:52:40;;;;;;;11.32;6.57;;;;;;;-145.63;45.97;39368.44;5026435;28;20053;-71
2023/11/03 08:55:07;;;;;;;13.35;7.55;;;;;;;-145.63;46.19;39368.44;5045421;28;20026;-71
2023/11/03 08:57:34;;;;;;;12.23;7.30;;;;;;;-145.63;46.10;39364.53;5031100;28;20030;-71
2023/11/03 09:00:11;;;;;;;10.65;7.85;;;;;;;-145.63;45.76;39386.06;5026437;28;20053;-71
2023/11/03 09:02:39;;;;;;;12.07;6.97;;;;;;;-145.63;45.91;39368.44;5025894;28;20109;-71
2023/11/03 09:05:07;;;;;;;7.63;6.38;;;;;;;-145.63;46.27;39364.53;5023734;28;20202;-70
2023/11/03 09:07:34;;;;;;;9.43;6.97;;;;;;;-145.63;46.10;39401.69;5038097;28;20271;-71
2023/11/03 09:10:00;;;;;;;10.30;7.10;;;;;;;-145.63;45.84;39376.28;5020715;28;20069;-72
2023/11/03 09:12:25;;;;;;;7.93;7.15;;;;;;;-145.63;46.19;39364.53;5011820;28;20030;-72
2023/11/03 09:14:51;;;;;;;11.18;7.13;;;;;;;-145.63;45.83;39376.28;5021111;28;20092;-71
2023/11/03 09:17:17;;;;;;;11.95;8.02;;;;;;;-145.63;45.84;39366.50;5012653;28;20041;-71
2023/11/03 09:19:43;;;;;;;10.90;7.30;;;;;;;-145.63;45.87;39376.28;5018055;28;20222;-70
2023/11/03 09:22:09;;;;;;;8.55;7.57;;;;;;;-145.63;46.25;39360.63;5025755;28;20314;-71
2023/11/03 09:24:35;;;;;;;8.52;7.63;;;;;;;-145.63;45.96;39364.53;5025808;28;20041;-69
2023/11/03 09:27:00;;;;;;;13.50;8.73;;;;;;;-145.63;45.37;39368.44;5016012;28;20089;-70
2023/11/03 09:29:26;;;;;;;11.60;7.60;;;;;;;-145.63;45.50;39376.28;5015044;28;20271;-71
2023/11/03 09:31:53;;;;;;;10.88;7.85;;;;;;;-145.63;46.08;39391.91;5034327;28;20045;-70
2023/11/03 09:34:19;;;;;;;15.73;8.10;;;;;;;-145.63;45.67;39399.75;5025383;28;20022;-71
2023/11/03 09:36:45;;;;;;;10.60;7.63;;;;;;;-145.63;45.28;39362.59;5023028;28;20056;-71
2023/11/03 09:39:11;;;;;;;16.20;8.38;;;;;;;-145.63;45.12;39376.28;5018254;28;20025;-71
2023/11/03 09:41:46;;;;;;;12.23;7.90;;;;;;;-145.63;45.51;39368.44;5012498;28;20037;-71
2023/11/03 09:44:13;;;;;;;12.35;8.13;;;;;;;-145.63;45.49;39339.13;5021744;28;20022;-70
2023/11/03 09:46:40;;;;;;;9.02;8.13;;;;;;;-145.63;46.37;39362.59;5005633;28;20030;-70
2023/11/03 09:49:06;;;;;;;10.45;7.22;;;;;;;-145.63;45.60;39376.28;5024300;28;20022;-70
2023/11/03 09:51:34;;;;;;;11.30;7.32;;;;;;;-145.63;45.68;39376.28;5025325;28;20026;-70
2023/11/03 09:54:05;;;;;;;13.43;7.55;;;;;;;-145.63;46.13;39403.66;5025241;28;20286;-70
2023/11/03 09:56:32;;;;;;;11.65;7.18;;;;;;;-145.63;46.15;39366.50;5018985;28;20046;-70
2023/11/03 09:58:58;;;;;;;13.57;8.15;;;;;;;-145.63;46.12;39388.00;5006774;28;20065;-71
2023/11/03 10:01:24;;;;;;;8.75;7.38;;;;;;;-145.63;45.40;39366.50;5024850;28;20178;-71
2023/11/03 10:03:49;;;;;;;9.98;8.05;;;;;;;-145.63;45.56;39384.09;5025285;28;20045;-72
2023/11/03 10:06:15;;;;;;;10.57;7.45;;;;;;;-145.63;46.10;39366.50;5013283;28;20026;-72
2023/11/03 10:08:42;;;;;;;13.55;8.20;;;;;;;-145.63;46.17;39356.72;5012164;28;20151;-71
2023/11/03 10:11:09;;;;;;;10.00;7.80;;;;;;;-145.63;46.49;39354.75;5024996;28;20029;-71
2023/11/03 10:13:37;;;;;;;9.98;7.22;;;;;;;-145.63;46.31;39378.22;5056824;28;20076;-70
2023/11/03 10:16:08;;;;;;;10.35;7.78;;;;;;;-145.63;46.46;39343.03;5007287;28;20073;-72
2023/11/03 10:18:39;;;;;;;10.65;8.18;;;;;;;-145.63;46.46;39364.53;5019064;28;20036;-72
2023/11/03 10:21:08;;;;;;;11.50;7.45;;;;;;;-145.63;46.33;39386.06;5024983;28;20076;-71
2023/11/03 10:23:37;;;;;;;13.77;7.53;;;;;;;-145.63;46.38;39348.88;5034192;28;20038;-73
2023/11/03 10:26:06;;;;;;;10.60;6.95;;;;;;;-145.63;46.38;39372.34;5006939;28;20038;-72
2023/11/03 10:28:34;;;;;;;12.23;7.22;;;;;;;-145.63;46.39;39337.16;5024577;28;20034;-71
2023/11/03 10:31:01;;;;;;;12.25;7.68;;;;;;;-145.63;46.67;39380.19;5011259;28;20136;-70
2023/11/03 10:33:28;;;;;;;9.00;6.97;;;;;;;-145.63;46.11;39364.53;5024037;28;20417;-72
2023/11/03 10:35:54;;;;;;;12.32;7.60;;;;;;;-145.63;45.74;39364.53;5056551;28;20030;-72
2023/11/03 10:38:20;;;;;;;12.70;7.20;;;;;;;-145.63;46.05;39348.88;5020552;28;20027;-71
2023/11/03 10:40:51;;;;;;;17.58;7.78;;;;;;;-145.63;45.90;39360.63;5036185;28;20258;-72
2023/11/03 10:43:22;;;;;;;10.82;7.70;;;;;;;-145.63;45.99;39419.31;5042964;28;20021;-71
2023/11/03 10:45:52;;;;;;;11.15;8.32;;;;;;;-145.63;45.81;39399.75;5028516;28;20030;-71
2023/11/03 10:48:25;;;;;;;13.53;8.60;;;;;;;-145.63;46.17;39346.94;5014258;28;20044;-71
2023/11/03 10:51:31;;;;;;;14.07;8.43;;;;;;;-145.63;45.52;39391.91;5024121;28;20298;-71
2023/11/03 10:54:16;;;;;;;10.65;8.15;;;;;;;-145.63;45.47;38818.91;5022749;28;20045;-72
2023/11/03 10:56:46;;;;;;;13.63;8.48;;;;;;;-145.63;45.64;39389.97;5017315;28;20330;-72
2023/11/03 10:59:14;;;;;;;11.25;8.00;;;;;;;-145.63;45.43;39370.41;5006741;28;20034;-72
2023/11/03 11:02:00;;;;;;;14.23;8.25;;;;;;;-145.63;45.20;39429.06;5023709;28;20095;-72
2023/11/03 11:04:52;;;;;;;16.10;8.10;;;;;;;-145.63;45.72;39366.50;5004010;28;20034;-72
2023/11/03 11:07:21;;;;;;;14.68;8.18;;;;;;;-145.63;46.00;39364.53;5055580;28;20085;-70
2023/11/03 11:09:47;;;;;;;13.82;8.68;;;;;;;-145.63;45.51;39376.28;5008210;28;20038;-72
2023/11/03 11:12:13;;;;;;;12.68;8.60;;;;;;;-145.63;45.71;39376.28;5019136;28;20025;-74
2023/11/03 11:14:43;;;;;;;18.67;8.73;;;;;;;-145.63;46.00;39388.00;5017900;28;20121;-70